Spragueville, IA (52074)

7:33 AM CDT on July 25, 2016 (GMT -0500)
Maquoketa South 2nd | | Change Station

Elev 745 ft 42.06 °N, 90.67 °W | Updated 2 minutes ago

Clear
Clear
68.4 °F
Feels Like 68.4 °F
N
2.2
Wind Variable Wind from SW

Today
High -- | Low -- °F
--% Chance of Precip.
Yesterday
High -- | Low -- °F
Precip. -- in
Pressure 30.08 in
Visibility 9.0 miles
Clouds Clear
Dew Point 65 °F
Humidity 89%
Rainfall 0.00 in
Snow Depth Not available.
5:48 AM 8:27 PM
Waning Gibbous, 66% visible
METAR KCWI 251156Z AUTO 22003KT 9SM CLR 19/19 A3004 RMK AO2 SLP185 6//// 7//// T01890189 10217 20189 52008 PNO $
Pressure 30.08 in
Visibility 9.0 miles
Clouds Clear
Dew Point 65 °F
Humidity 89%
Rainfall 0.00 in
Snow Depth Not available.
5:48 AM 8:27 PM
Waning Gibbous, 66% visible
METAR KCWI 251156Z AUTO 22003KT 9SM CLR 19/19 A3004 RMK AO2 SLP185 6//// 7//// T01890189 10217 20189 52008 PNO $

10-Day Weather Forecast

Almanac

Astronomy

Jul. 25, 2016 Rise Set
Actual Time
Civil Twilight
Nautical Twilight
Astronomical Twilight
Moon
Length of Visible Light
Length of Day
Tomorrow will be .
, % of the Moon is Illuminated

Today's Extremes

State Highs State Lows

Community

WunderPhotos

Upload Photos

1,927,296 photos uploaded!

WunderBlog® & News

Nearby

Air Quality

  Air Quality AQ Index Pollutant
Not available.

Snow Depth

Station Depth Elevation

Earthquake Activity

City Distance Mag. Time & Date
Minimum magnitude displayed is 2.5.

Coastal Water Temperatures

Place Temperature

Stations

Nearby Weather Stations

Station Location Temp. Windchill Dew Point Humidity Wind Precip. Elev Updated Type
                   

Watches & Warnings

There are currently no watches in effect.